Voyager — C6WC2 — position and weather

sailwx.info

Track history (hours):
 
Tides and Currents Weather Stations Pressure Air Temp Water Temp Dewpoint Dewpoint Depression Visibility Wind Speed Wind Dir Waves Ship Positions

Voyager

Last reported at 2016-May-29 22:33 UTC. Time now 2016-May-29 23:08 UTC.
Position N 36°48' W 024°19'.

Length 151 m; draft 6 m.

Type: Ship. MMSI: 309695000.

Date/timePositionNaut miles runAvg speedWind from/ knotsBaromVisibWave heightAir tempDewpointWater temp
2016-May-29 22:33N 36°48' W 024°19'1515.0
2016-May-29 21:33N 36°57' W 024°34'1514.8
2016-May-29 20:34N 37°05' W 024°50'1514.9
2016-May-29 19:33N 37°15' W 025°03'1515.5
2016-May-29 18:33N 37°26' W 025°17'1615.6
2016-May-29 17:34N 37°38' W 025°31'10 9.9
2016-May-29 16:34N 37°44' W 025°40'0 0.0
2016-May-29 15:34N 37°44' W 025°40'0 0.0
2016-May-29 14:34N 37°44' W 025°40'0 0.0
2016-May-29 13:32N 37°44' W 025°40'0 0.0
2016-May-29 12:34N 37°44' W 025°40'0 0.0
2016-May-29 11:32N 37°44' W 025°40'0 0.0
2016-May-29 10:32N 37°44' W 025°40'0 0.0
2016-May-29 09:32N 37°44' W 025°40'0 0.0
2016-May-29 08:32N 37°44' W 025°40'0 0.0
2016-May-29 07:32N 37°44' W 025°40'2 2.1
2016-May-29 06:34N 37°43' W 025°38'1211.8
2016-May-29 05:33N 37°43' W 025°53'1414.0
2016-May-29 04:33N 37°44' W 026°11'1514.9
2016-May-29 03:34N 37°49' W 026°28'1514.5
2016-May-29 02:33N 37°54' W 026°46'1514.9
2016-May-29 01:34N 37°59' W 027°04'1514.9
2016-May-29 00:34N 38°04' W 027°21'1515.0
2016-May-28 23:34N 38°09' W 027°39'1514.9
2016-May-28 22:33N 38°14' W 027°57'1515.1
2016-May-28 21:33N 38°19' W 028°15'1615.8
2016-May-28 20:33N 38°24' W 028°34'8 8.1
2016-May-28 19:31N 38°32' W 028°37'0 0.0
2016-May-28 18:28N 38°32' W 028°37'0 0.0
2016-May-28 17:31N 38°32' W 028°37'0 0.0
2016-May-28 16:31N 38°32' W 028°37'0 0.0
2016-May-28 15:31N 38°32' W 028°37'0 0.0
2016-May-28 14:31N 38°32' W 028°37'0 0.0
2016-May-28 13:28N 38°32' W 028°37'0 0.0
2016-May-28 12:28N 38°32' W 028°37'0 0.0
2016-May-28 11:31N 38°32' W 028°37'1 1.1
2016-May-28 10:33N 38°32' W 028°36'9 9.1
2016-May-28 09:33N 38°36' W 028°25'1312.7
2016-May-28 08:33N 38°32' W 028°09'1312.9
2016-May-28 07:34N 38°29' W 027°53'1313.0
2016-May-28 06:33N 38°26' W 027°37'1413.6
2016-May-28 05:33N 38°25' W 027°20'1414.5
2016-May-28 04:33N 38°30' W 027°03'1414.3
2016-May-28 03:34N 38°35' W 026°46'1514.7
2016-May-28 02:34N 38°41' W 026°28'1514.6
2016-May-28 01:33N 38°46' W 026°11'1714.9
2016-May-28 00:23N 38°53' W 025°50'1215.0
2016-May-27 23:34N 38°58' W 025°36'  
2016-May-24 01:33N 49°01' W 005°23'116 9.4
2016-May-23 13:13N 49°28' W 002°31'58 3.9
2016-May-22 22:18N 50°11' W 001°30'20 9.2
2016-May-22 20:08N 50°26' W 001°10'5 9.2
2016-May-22 19:33N 50°29' W 001°04'8 8.4
2016-May-22 18:33N 50°37' W 000°59'8 8.5
2016-May-22 17:34N 50°45' W 001°05'4 3.7
2016-May-22 16:31N 50°49' W 001°06'0 0.0
2016-May-22 15:31N 50°49' W 001°06'0 0.0
2016-May-22 14:31N 50°49' W 001°06'0 0.0
2016-May-22 13:31N 50°49' W 001°06'0 0.0
2016-May-22 12:31N 50°49' W 001°06'0 0.0
2016-May-22 11:31N 50°49' W 001°06'0 0.0
2016-May-22 10:31N 50°49' W 001°06'0 0.0
2016-May-22 09:31N 50°49' W 001°06'0 0.0
2016-May-22 08:31N 50°49' W 001°06'0 0.0
2016-May-22 07:31N 50°49' W 001°06'0 0.0
2016-May-22 06:34N 50°49' W 001°06'4 4.3
2016-May-22 05:33N 50°44' W 001°04'9 9.4
2016-May-22 04:33N 50°35' W 000°60'13 8.9
2016-May-22 03:05N 50°25' W 001°12'112 5.7
2016-May-21 07:27N 48°38' W 002°02'1 1.0
2016-May-21 06:33N 48°39' W 002°03'10 9.5
2016-May-21 05:28N 48°45' W 002°16'11 8.1
2016-May-21 04:07N 48°50' W 002°30'5 7.5
2016-May-21 03:26N 48°53' W 002°37'10 8.1
2016-May-21 02:10N 48°58' W 002°50'17 8.1
2016-May-21 00:05N 48°58' W 003°16'5 8.1
2016-May-20 23:31N 48°57' W 003°23'11 8.1
2016-May-20 22:07N 48°56' W 003°41'24 9.1
2016-May-20 19:26N 48°55' W 004°18'18 9.5
2016-May-20 17:33N 48°54' W 004°45'10 9.8
2016-May-20 16:33N 48°53' W 004°60'1110.1
2016-May-20 15:27N 48°52' W 005°16'5113.0
2016-May-20 11:34N 48°10' W 005°60'1616.0
2016-May-20 10:33N 47°55' W 006°07'  
Track history (hours):
 
Tides and Currents Weather Stations Pressure Air Temp Water Temp Dewpoint Dewpoint Depression Visibility Wind Speed Wind Dir Waves Ship Positions

Voyager

Last reported at 2016-May-29 22:33 UTC. Time now 2016-May-29 23:08 UTC.
Position N 36°48' W 024°19'.

Length 151 m; draft 6 m.

Type: Ship. MMSI: 309695000.

Date/timePositionNaut miles runAvg speedWind from/ knotsBaromVisibWave heightAir tempDewpointWater temp
2016-May-29 22:33N 36°48' W 024°19'1515.0
2016-May-29 21:33N 36°57' W 024°34'1514.8
2016-May-29 20:34N 37°05' W 024°50'1514.9
2016-May-29 19:33N 37°15' W 025°03'1515.5
2016-May-29 18:33N 37°26' W 025°17'1615.6
2016-May-29 17:34N 37°38' W 025°31'10 9.9
2016-May-29 16:34N 37°44' W 025°40'0 0.0
2016-May-29 15:34N 37°44' W 025°40'0 0.0
2016-May-29 14:34N 37°44' W 025°40'0 0.0
2016-May-29 13:32N 37°44' W 025°40'0 0.0
2016-May-29 12:34N 37°44' W 025°40'0 0.0
2016-May-29 11:32N 37°44' W 025°40'0 0.0
2016-May-29 10:32N 37°44' W 025°40'0 0.0
2016-May-29 09:32N 37°44' W 025°40'0 0.0
2016-May-29 08:32N 37°44' W 025°40'0 0.0
2016-May-29 07:32N 37°44' W 025°40'2 2.1
2016-May-29 06:34N 37°43' W 025°38'1211.8
2016-May-29 05:33N 37°43' W 025°53'1414.0
2016-May-29 04:33N 37°44' W 026°11'1514.9
2016-May-29 03:34N 37°49' W 026°28'1514.5
2016-May-29 02:33N 37°54' W 026°46'1514.9
2016-May-29 01:34N 37°59' W 027°04'1514.9
2016-May-29 00:34N 38°04' W 027°21'1515.0
2016-May-28 23:34N 38°09' W 027°39'1514.9
2016-May-28 22:33N 38°14' W 027°57'1515.1
2016-May-28 21:33N 38°19' W 028°15'1615.8
2016-May-28 20:33N 38°24' W 028°34'8 8.1
2016-May-28 19:31N 38°32' W 028°37'0 0.0
2016-May-28 18:28N 38°32' W 028°37'0 0.0
2016-May-28 17:31N 38°32' W 028°37'0 0.0
2016-May-28 16:31N 38°32' W 028°37'0 0.0
2016-May-28 15:31N 38°32' W 028°37'0 0.0
2016-May-28 14:31N 38°32' W 028°37'0 0.0
2016-May-28 13:28N 38°32' W 028°37'0 0.0
2016-May-28 12:28N 38°32' W 028°37'0 0.0
2016-May-28 11:31N 38°32' W 028°37'1 1.1
2016-May-28 10:33N 38°32' W 028°36'9 9.1
2016-May-28 09:33N 38°36' W 028°25'1312.7
2016-May-28 08:33N 38°32' W 028°09'1312.9
2016-May-28 07:34N 38°29' W 027°53'1313.0
2016-May-28 06:33N 38°26' W 027°37'1413.6
2016-May-28 05:33N 38°25' W 027°20'1414.5
2016-May-28 04:33N 38°30' W 027°03'1414.3
2016-May-28 03:34N 38°35' W 026°46'1514.7
2016-May-28 02:34N 38°41' W 026°28'1514.6
2016-May-28 01:33N 38°46' W 026°11'1714.9
2016-May-28 00:23N 38°53' W 025°50'1215.0
2016-May-27 23:34N 38°58' W 025°36'  
2016-May-24 01:33N 49°01' W 005°23'116 9.4
2016-May-23 13:13N 49°28' W 002°31'58 3.9
2016-May-22 22:18N 50°11' W 001°30'20 9.2
2016-May-22 20:08N 50°26' W 001°10'5 9.2
2016-May-22 19:33N 50°29' W 001°04'8 8.4
2016-May-22 18:33N 50°37' W 000°59'8 8.5
2016-May-22 17:34N 50°45' W 001°05'4 3.7
2016-May-22 16:31N 50°49' W 001°06'0 0.0
2016-May-22 15:31N 50°49' W 001°06'0 0.0
2016-May-22 14:31N 50°49' W 001°06'0 0.0
2016-May-22 13:31N 50°49' W 001°06'0 0.0
2016-May-22 12:31N 50°49' W 001°06'0 0.0
2016-May-22 11:31N 50°49' W 001°06'0 0.0
2016-May-22 10:31N 50°49' W 001°06'0 0.0
2016-May-22 09:31N 50°49' W 001°06'0 0.0
2016-May-22 08:31N 50°49' W 001°06'0 0.0
2016-May-22 07:31N 50°49' W 001°06'0 0.0
2016-May-22 06:34N 50°49' W 001°06'4 4.3
2016-May-22 05:33N 50°44' W 001°04'9 9.4
2016-May-22 04:33N 50°35' W 000°60'13 8.9
2016-May-22 03:05N 50°25' W 001°12'112 5.7
2016-May-21 07:27N 48°38' W 002°02'1 1.0
2016-May-21 06:33N 48°39' W 002°03'10 9.5
2016-May-21 05:28N 48°45' W 002°16'11 8.1
2016-May-21 04:07N 48°50' W 002°30'5 7.5
2016-May-21 03:26N 48°53' W 002°37'10 8.1
2016-May-21 02:10N 48°58' W 002°50'17 8.1
2016-May-21 00:05N 48°58' W 003°16'5 8.1
2016-May-20 23:31N 48°57' W 003°23'11 8.1
2016-May-20 22:07N 48°56' W 003°41'24 9.1
2016-May-20 19:26N 48°55' W 004°18'18 9.5
2016-May-20 17:33N 48°54' W 004°45'10 9.8
2016-May-20 16:33N 48°53' W 004°60'1110.1
2016-May-20 15:27N 48°52' W 005°16'5113.0
2016-May-20 11:34N 48°10' W 005°60'1616.0
2016-May-20 10:33N 47°55' W 006°07'  

Dump ship's entire track history